Time;durP1;ratioP1;P1;durP2;ratioP2;P2;SDS_P1;SDS_P2;PMS_P1;PMS_P2;Temp;Humidity;BMP_temperature;BMP_pressure;BME280_temperature;BME280_humidity;BME280_pressure;Samples;Min_cycle;Max_cycle;Signal;HPM_P1;HPM_P2
2021/08/25 00:02:04;;;;;;;;;;;;;;;28.61;42.59;100614.50;5075598;28;720;-36
2021/08/25 00:04:29;;;;;;;;;;;;;;;28.59;42.93;100611.16;5075998;28;1520;-38
2021/08/25 00:06:54;;;;;;;;;;;;;;;28.63;42.51;100606.19;5076905;28;831;-38
2021/08/25 00:09:19;;;;;;;;;;;;;;;28.66;42.91;100605.78;5076816;28;760;-37
2021/08/25 00:11:45;;;;;;;;;;;;;;;28.67;42.65;100605.59;5081080;28;963;-39
2021/08/25 00:14:10;;;;;;;;;;;;;;;28.64;43.04;100600.56;5096760;28;810;-38
2021/08/25 00:16:35;;;;;;;;;;;;;;;28.59;42.95;100603.84;5096929;28;886;-37
2021/08/25 00:19:00;;;;;;;;;;;;;;;28.65;42.76;100602.22;5096570;28;763;-39
2021/08/25 00:21:26;;;;;;;;;;;;;;;28.60;42.95;100593.88;5092757;28;1909;-39
2021/08/25 00:23:51;;;;;;;;;;;;;;;28.55;42.96;100599.88;5076340;28;767;-38
2021/08/25 00:26:19;;;;;;;;;;;;;;;28.59;43.12;100603.03;5077098;28;919;-38
2021/08/25 00:28:44;;;;;;;;;;;;;;;28.62;42.79;100591.81;5096862;28;751;-39
2021/08/25 00:31:11;;;;;;;;;;;;;;;28.60;43.01;100592.00;5096707;28;818;-38
2021/08/25 00:33:36;;;;;;;;;;;;;;;28.61;42.92;100598.25;5096113;28;818;-39
2021/08/25 00:36:01;;;;;;;;;;;;;;;28.62;42.96;100596.38;5096505;28;745;-38
2021/08/25 00:38:26;;;;;;;;;;;;;;;28.62;42.92;100597.22;5096159;28;866;-39
2021/08/25 00:40:52;;;;;;;;;;;;;;;28.56;42.98;100589.91;5096569;28;1976;-37
2021/08/25 00:43:17;;;;;;;;;;;;;;;28.59;43.25;100589.50;5078020;28;982;-38
2021/08/25 00:45:42;;;;;;;;;;;;;;;28.59;43.15;100589.50;5076648;28;780;-38
2021/08/25 00:48:08;;;;;;;;;;;;;;;28.64;43.02;100586.19;5075657;28;1311;-39
2021/08/25 00:50:35;;;;;;;;;;;;;;;28.57;43.37;100587.00;5092758;28;1570;-39
2021/08/25 00:53:02;;;;;;;;;;;;;;;28.59;42.94;100582.19;5096707;28;793;-38
2021/08/25 00:55:28;;;;;;;;;;;;;;;28.56;43.16;100579.88;5096214;28;862;-39
2021/08/25 00:57:53;;;;;;;;;;;;;;;28.57;43.14;100578.88;5081325;28;1016;-39
2021/08/25 01:00:18;;;;;;;;;;;;;;;28.58;43.27;100574.28;5076002;28;1887;-39
2021/08/25 01:02:44;;;;;;;;;;;;;;;28.58;43.18;100577.81;5075811;28;731;-39
2021/08/25 01:05:09;;;;;;;;;;;;;;;28.54;43.19;100571.16;5076215;28;810;-39
2021/08/25 01:07:36;;;;;;;;;;;;;;;28.53;43.45;100568.66;5077883;28;854;-39
2021/08/25 01:10:19;;;;;;;;;;;;;;;28.52;43.39;100566.94;5079370;28;858;-38
2021/08/25 01:12:44;;;;;;;;;;;;;;;28.58;43.19;100563.44;5091784;28;1382;-38
2021/08/25 01:15:10;;;;;;;;;;;;;;;28.55;43.21;100562.00;5099237;28;771;-38
2021/08/25 01:17:35;;;;;;;;;;;;;;;28.55;43.30;100562.00;5098543;28;1351;-38
2021/08/25 01:20:02;;;;;;;;;;;;;;;28.54;43.32;100556.78;5098302;28;1972;-39
2021/08/25 01:22:27;;;;;;;;;;;;;;;28.49;43.36;100560.09;5087479;28;1103;-38
2021/08/25 01:24:53;;;;;;;;;;;;;;;28.51;43.52;100552.56;5078183;28;846;-40
2021/08/25 01:27:18;;;;;;;;;;;;;;;28.61;43.42;100546.84;5089091;28;997;-38
2021/08/25 01:29:43;;;;;;;;;;;;;;;28.55;43.34;100558.44;5098140;28;806;-38
2021/08/25 01:32:09;;;;;;;;;;;;;;;28.54;43.41;100554.06;5097999;28;863;-38
2021/08/25 01:34:51;;;;;;;;;;;;;;;28.53;43.62;100552.41;5098133;28;790;-38
2021/08/25 01:37:16;;;;;;;;;;;;;;;28.55;43.38;100558.44;5099954;28;782;-39
2021/08/25 01:39:42;;;;;;;;;;;;;;;28.53;43.43;100552.41;5098633;28;1898;-37
2021/08/25 01:42:07;;;;;;;;;;;;;;;28.50;43.68;100548.22;5091172;28;941;-38
2021/08/25 01:44:32;;;;;;;;;;;;;;;28.55;43.36;100551.16;5079202;28;771;-38
2021/08/25 01:46:57;;;;;;;;;;;;;;;28.55;43.45;100550.31;5079067;28;866;-38
2021/08/25 01:49:23;;;;;;;;;;;;;;;28.59;43.53;100557.03;5085521;28;1535;-37
2021/08/25 01:51:48;;;;;;;;;;;;;;;28.57;43.49;100554.53;5099486;28;831;-38
2021/08/25 01:54:13;;;;;;;;;;;;;;;28.56;43.56;100554.72;5098799;28;755;-37
2021/08/25 01:56:39;;;;;;;;;;;;;;;28.58;43.60;100549.91;5094592;28;977;-38
2021/08/25 01:59:05;;;;;;;;;;;;;;;28.55;43.48;100553.03;5078901;28;771;-38
2021/08/25 02:01:30;;;;;;;;;;;;;;;28.54;43.70;100554.91;5078589;28;1954;-38
2021/08/25 02:03:58;;;;;;;;;;;;;;;28.60;43.47;100545.16;5078411;28;1523;-39
2021/08/25 02:06:23;;;;;;;;;;;;;;;28.53;43.49;100550.53;5078922;28;873;-38
2021/08/25 02:08:48;;;;;;;;;;;;;;;28.56;43.52;100549.31;5078334;28;806;-38
2021/08/25 02:11:14;;;;;;;;;;;;;;;28.59;43.49;100543.50;5079271;28;994;-37
2021/08/25 02:13:39;;;;;;;;;;;;;;;28.59;43.70;100540.78;5098594;28;798;-38
2021/08/25 02:16:04;;;;;;;;;;;;;;;28.56;43.81;100546.59;5098809;28;854;-37
2021/08/25 02:18:30;;;;;;;;;;;;;;;28.53;43.53;100547.00;5097867;28;743;-38
2021/08/25 02:20:55;;;;;;;;;;;;;;;28.57;43.80;100549.09;5098592;28;1898;-36
2021/08/25 02:23:20;;;;;;;;;;;;;;;28.52;43.92;100543.44;5078901;28;1186;-36
2021/08/25 02:25:45;;;;;;;;;;;;;;;28.52;43.83;100545.31;5078118;28;734;-39
2021/08/25 02:28:11;;;;;;;;;;;;;;;28.53;43.62;100547.81;5095417;28;947;-39
2021/08/25 02:30:36;;;;;;;;;;;;;;;28.57;43.74;100546.41;5098411;28;927;-37
2021/08/25 02:33:01;;;;;;;;;;;;;;;28.56;43.72;100538.47;5098000;28;755;-36
2021/08/25 02:35:27;;;;;;;;;;;;;;;28.56;43.79;100536.59;5098495;28;862;-37
2021/08/25 02:37:52;;;;;;;;;;;;;;;28.60;43.66;100546.00;5098877;28;933;-37
2021/08/25 02:40:17;;;;;;;;;;;;;;;28.53;43.77;100542.41;5097887;28;1959;-39
2021/08/25 02:42:43;;;;;;;;;;;;;;;28.58;43.68;100544.50;5084502;28;1005;-38
2021/08/25 02:45:08;;;;;;;;;;;;;;;28.56;43.78;100538.47;5077733;28;783;-39
2021/08/25 02:47:33;;;;;;;;;;;;;;;28.62;43.79;100540.38;5078426;28;819;-38
2021/08/25 02:49:59;;;;;;;;;;;;;;;28.56;43.85;100536.59;5089048;28;1613;-38
2021/08/25 02:52:24;;;;;;;;;;;;;;;28.54;43.79;100533.28;5097997;28;799;-37
2021/08/25 02:54:49;;;;;;;;;;;;;;;28.56;44.01;100536.59;5098465;28;811;-38
2021/08/25 02:57:14;;;;;;;;;;;;;;;28.56;43.83;100535.78;5087927;28;1052;-37
2021/08/25 02:59:40;;;;;;;;;;;;;;;28.56;43.62;100538.47;5077468;28;1926;-36
2021/08/25 03:02:05;;;;;;;;;;;;;;;28.54;43.75;100533.28;5077543;28;827;-39
2021/08/25 03:04:30;;;;;;;;;;;;;;;28.54;43.67;100535.97;5077711;28;886;-39
2021/08/25 03:06:56;;;;;;;;;;;;;;;28.55;43.72;100543.03;5077496;28;847;-37
2021/08/25 03:09:21;;;;;;;;;;;;;;;28.67;43.34;100542.50;5077584;28;767;-37
2021/08/25 03:11:47;;;;;;;;;;;;;;;28.65;43.79;100544.56;5082659;28;907;-37
2021/08/25 03:14:13;;;;;;;;;;;;;;;28.60;43.90;100550.56;5097931;28;794;-39
2021/08/25 03:16:38;;;;;;;;;;;;;;;28.66;43.45;100544.34;5097512;28;853;-39
2021/08/25 03:19:03;;;;;;;;;;;;;;;28.76;43.24;100541.28;5097505;28;794;-39
2021/08/25 03:21:29;;;;;;;;;;;;;;;28.71;43.18;100541.06;5093092;28;1959;-37
2021/08/25 03:23:54;;;;;;;;;;;;;;;28.60;43.46;100540.59;5076463;28;794;-38
2021/08/25 03:26:19;;;;;;;;;;;;;;;28.61;43.63;100544.13;5078938;28;927;-38
2021/08/25 03:28:44;;;;;;;;;;;;;;;28.62;43.93;100543.09;5097737;28;783;-37
2021/08/25 03:31:10;;;;;;;;;;;;;;;28.70;43.69;100548.34;5095893;28;807;-39
2021/08/25 03:33:36;;;;;;;;;;;;;;;28.63;43.77;100552.06;5097625;28;825;-38
2021/08/25 03:36:01;;;;;;;;;;;;;;;28.62;43.98;100543.09;5096931;28;836;-38
2021/08/25 03:38:26;;;;;;;;;;;;;;;28.44;44.13;100557.13;5097430;28;762;-41
2021/08/25 03:40:51;;;;;;;;;;;;;;;28.03;44.91;100553.22;5097206;28;1961;-41
2021/08/25 03:43:17;;;;;;;;;;;;;;;27.61;45.58;100553.84;5079047;28;946;-40
2021/08/25 03:45:42;;;;;;;;;;;;;;;27.56;45.56;100551.69;5076796;28;799;-40
2021/08/25 03:48:07;;;;;;;;;;;;;;;27.39;46.07;100549.22;5076585;28;1141;-40
2021/08/25 03:50:32;;;;;;;;;;;;;;;27.82;45.27;100549.50;5093147;28;1661;-41
2021/08/25 03:52:58;;;;;;;;;;;;;;;28.15;44.73;100548.13;5096865;28;783;-42
2021/08/25 03:55:23;;;;;;;;;;;;;;;28.24;44.98;100552.38;5097446;28;1070;-39
2021/08/25 03:57:48;;;;;;;;;;;;;;;28.32;44.55;100545.97;5082468;28;993;-38
2021/08/25 04:00:14;;;;;;;;;;;;;;;28.32;44.40;100546.81;5076530;28;1976;-39
2021/08/25 04:02:39;;;;;;;;;;;;;;;27.68;45.74;100559.28;5074859;28;1110;-38
2021/08/25 04:05:05;;;;;;;;;;;;;;;27.22;46.80;100553.16;5076564;28;732;-41
2021/08/25 04:07:30;;;;;;;;;;;;;;;27.05;47.01;100553.38;5076542;28;785;-39
2021/08/25 04:09:55;;;;;;;;;;;;;;;26.89;46.90;100562.47;5076798;28;887;-39
2021/08/25 04:12:21;;;;;;;;;;;;;;;26.85;47.62;100562.00;5086570;28;942;-39
2021/08/25 04:14:46;;;;;;;;;;;;;;;26.75;44.76;100554.19;5096321;28;805;-38
2021/08/25 04:17:11;;;;;;;;;;;;;;;26.01;45.69;100555.66;5096546;28;831;-39
2021/08/25 04:19:36;;;;;;;;;;;;;;;25.67;45.73;100544.28;5096662;28;1961;-37
2021/08/25 04:22:02;;;;;;;;;;;;;;;25.43;45.63;100546.91;5086933;28;1185;-38
2021/08/25 04:24:27;;;;;;;;;;;;;;;25.14;45.91;100548.38;5076359;28;731;-37
2021/08/25 04:26:53;;;;;;;;;;;;;;;25.01;46.04;100537.31;5075786;28;1379;-42
2021/08/25 04:29:18;;;;;;;;;;;;;;;24.76;46.10;100542.75;5076114;28;834;-37
2021/08/25 04:31:43;;;;;;;;;;;;;;;24.75;46.09;100538.41;5076287;28;803;-37
2021/08/25 04:34:08;;;;;;;;;;;;;;;24.63;46.42;100535.22;5076724;28;791;-40
2021/08/25 04:36:34;;;;;;;;;;;;;;;25.18;47.29;100540.81;5076518;28;767;-38
2021/08/25 04:38:59;;;;;;;;;;;;;;;26.37;43.82;100540.75;5075930;28;914;-37
2021/08/25 04:41:24;;;;;;;;;;;;;;;26.70;43.84;100542.25;5078541;28;1953;-36
2021/08/25 04:43:50;;;;;;;;;;;;;;;26.96;43.98;100544.50;5100679;28;747;-34
2021/08/25 04:46:16;;;;;;;;;;;;;;;22.34;53.36;100550.94;5100460;28;782;-35
2021/08/25 04:48:41;;;;;;;;;;;;;;;21.01;56.60;100545.03;5099641;28;1530;-36
2021/08/25 04:51:06;;;;;;;;;;;;;;;20.68;57.79;100541.88;5079937;28;886;-38
2021/08/25 04:53:32;;;;;;;;;;;;;;;20.45;58.43;100549.38;5079790;28;735;-37
2021/08/25 04:55:57;;;;;;;;;;;;;;;20.38;58.39;100549.94;5080000;28;743;-42
2021/08/25 04:58:22;;;;;;;;;;;;;;;20.24;59.61;100545.88;5099340;28;1010;-37
2021/08/25 05:00:48;;;;;;;;;;;;;;;20.12;59.97;100550.50;5099972;28;1982;-36
2021/08/25 05:03:14;;;;;;;;;;;;;;;22.45;55.51;100560.59;5097742;28;1130;-35
2021/08/25 05:05:39;;;;;;;;;;;;;;;24.68;48.49;100560.59;5091782;28;1471;-47
2021/08/25 05:08:05;;;;;;;;;;;;;;;25.51;47.03;100555.94;5087979;28;1404;-34
2021/08/25 05:10:30;;;;;;;;;;;;;;;25.90;46.70;100565.84;5090782;28;1380;-40
2021/08/25 05:12:55;;;;;;;;;;;;;;;26.34;44.21;100565.38;5087913;28;1246;-39
2021/08/25 05:15:20;;;;;;;;;;;;;;;24.38;46.95;100567.53;5079215;28;739;-37
2021/08/25 05:17:46;;;;;;;;;;;;;;;21.32;54.70;100565.28;5079885;28;1308;-36
2021/08/25 05:20:11;;;;;;;;;;;;;;;20.77;57.06;100569.56;5080974;28;1968;-36
2021/08/25 05:22:37;;;;;;;;;;;;;;;20.24;58.77;100569.91;5084350;28;1193;-37
2021/08/25 05:25:02;;;;;;;;;;;;;;;20.14;59.55;100579.72;5090686;28;1451;-39
2021/08/25 05:27:27;;;;;;;;;;;;;;;20.20;59.58;100581.88;5084547;28;1316;-37
2021/08/25 05:29:53;;;;;;;;;;;;;;;20.35;59.60;100586.78;5086294;28;1419;-38
2021/08/25 05:32:18;;;;;;;;;;;;;;;20.74;60.64;100581.38;5090303;28;1301;-45
2021/08/25 05:34:43;;;;;;;;;;;;;;;23.69;51.23;100588.28;5081076;28;1329;-41
2021/08/25 05:37:09;;;;;;;;;;;;;;;24.87;47.82;100585.47;5082360;28;1458;-42
2021/08/25 05:39:34;;;;;;;;;;;;;;;25.34;43.92;100582.13;5083795;28;1325;-35
2021/08/25 05:41:59;;;;;;;;;;;;;;;25.51;42.80;100578.34;5086878;28;1910;-40
2021/08/25 05:44:25;;;;;;;;;;;;;;;25.73;43.26;100580.44;5082424;28;1380;-42
2021/08/25 05:46:50;;;;;;;;;;;;;;;21.89;52.27;100582.19;5082775;28;1599;-38
2021/08/25 05:49:16;;;;;;;;;;;;;;;20.35;57.11;100576.94;5083539;28;1479;-41
2021/08/25 05:51:41;;;;;;;;;;;;;;;20.17;58.32;100574.09;5082009;28;1436;-35
2021/08/25 05:54:09;;;;;;;;;;;;;;;19.93;59.28;100578.88;5084132;28;1593;-43
2021/08/25 05:56:34;;;;;;;;;;;;;;;20.01;59.93;100580.84;5081295;28;1134;-38
2021/08/25 05:59:00;;;;;;;;;;;;;;;19.90;61.01;100578.28;5088880;28;1482;-36
2021/08/25 06:01:25;;;;;;;;;;;;;;;22.19;56.60;100590.03;5089476;28;1909;-36
2021/08/25 06:03:51;;;;;;;;;;;;;;;24.02;49.99;100585.66;5090720;28;1487;-35
2021/08/25 06:06:16;;;;;;;;;;;;;;;24.75;49.20;100584.13;5089903;28;1189;-39
2021/08/25 06:08:41;;;;;;;;;;;;;;;25.23;48.49;100588.72;5085844;28;1325;-41
2021/08/25 06:11:06;;;;;;;;;;;;;;;21.61;56.57;100577.69;5080538;28;823;-38
2021/08/25 06:13:32;;;;;;;;;;;;;;;20.47;59.90;100579.47;5080070;28;943;-42
2021/08/25 06:15:57;;;;;;;;;;;;;;;20.31;60.98;100581.72;5084305;28;857;-36
2021/08/25 06:18:22;;;;;;;;;;;;;;;20.14;61.61;100575.25;5097570;28;1344;-45
2021/08/25 06:20:47;;;;;;;;;;;;;;;20.15;61.78;100581.44;5093124;28;1976;-43
2021/08/25 06:23:13;;;;;;;;;;;;;;;20.09;62.22;100585.50;5080909;28;1207;-37
2021/08/25 06:25:39;;;;;;;;;;;;;;;20.08;61.84;100580.31;5078313;28;475;-42
2021/08/25 06:28:05;;;;;;;;;;;;;;;22.75;55.69;100587.94;5084881;28;1257;-43
2021/08/25 06:30:30;;;;;;;;;;;;;;;24.16;52.30;100586.84;5092849;28;747;-41
2021/08/25 06:32:55;;;;;;;;;;;;;;;24.74;49.23;100583.28;5091985;28;878;-36
2021/08/25 06:35:21;;;;;;;;;;;;;;;24.31;50.80;100591.56;5084956;28;763;-48
2021/08/25 06:37:46;;;;;;;;;;;;;;;20.95;58.64;100585.72;5078094;28;917;-42
2021/08/25 06:40:12;;;;;;;;;;;;;;;20.25;60.60;100582.25;5077932;28;1979;-35
2021/08/25 06:42:37;;;;;;;;;;;;;;;20.11;61.30;100580.00;5088827;28;1246;-35
2021/08/25 06:45:03;;;;;;;;;;;;;;;20.01;61.13;100564.81;5097894;28;846;-38
2021/08/25 06:47:28;;;;;;;;;;;;;;;19.93;61.65;100575.34;5097646;28;815;-37
2021/08/25 06:49:54;;;;;;;;;;;;;;;19.92;62.08;100584.31;5088839;28;1553;-33
2021/08/25 06:52:19;;;;;;;;;;;;;;;19.80;62.32;100584.44;5098182;28;930;-36
2021/08/25 06:54:44;;;;;;;;;;;;;;;20.46;64.43;100585.78;5087856;28;1537;-42
2021/08/25 06:57:10;;;;;;;;;;;;;;;23.17;53.36;100587.38;5085163;28;1266;-55
2021/08/25 06:59:35;;;;;;;;;;;;;;;21.21;56.42;100584.22;5088698;28;1321;-45
2021/08/25 07:02:00;;;;;;;;;;;;;;;19.85;60.53;100584.06;5088641;28;1907;-32
2021/08/25 07:04:25;;;;;;;;;;;;;;;19.91;61.23;100586.16;5091146;28;1601;-38
2021/08/25 07:06:51;;;;;;;;;;;;;;;20.04;61.10;100583.25;5083743;28;1538;-35
2021/08/25 07:09:16;;;;;;;;;;;;;;;19.93;61.44;100589.53;5094043;28;784;-34
2021/08/25 07:11:41;;;;;;;;;;;;;;;19.87;61.80;100587.41;5081930;28;1006;-39
2021/08/25 07:14:07;;;;;;;;;;;;;;;20.37;62.22;100584.81;5095035;28;874;-35
2021/08/25 07:16:34;;;;;;;;;;;;;;;22.90;54.65;100587.38;5097537;28;803;-36
2021/08/25 07:19:00;;;;;;;;;;;;;;;20.84;57.75;100576.00;5097746;28;881;-36
2021/08/25 07:21:28;;;;;;;;;;;;;;;20.01;60.87;100582.66;5080681;28;1979;-36
2021/08/25 07:23:53;;;;;;;;;;;;;;;19.98;61.71;100585.59;5077943;28;843;-35
2021/08/25 07:26:18;;;;;;;;;;;;;;;20.06;61.83;100575.09;5095226;28;810;-40
2021/08/25 07:28:46;;;;;;;;;;;;;;;20.12;61.83;100579.06;5077015;28;834;-35
2021/08/25 07:31:14;;;;;;;;;;;;;;;20.00;62.08;100583.66;5077008;28;835;-36
2021/08/25 07:33:40;;;;;;;;;;;;;;;19.94;62.07;100577.03;5092360;28;760;-35
2021/08/25 07:36:06;;;;;;;;;;;;;;;21.92;59.16;100583.72;5076771;28;766;-37
2021/08/25 07:38:31;;;;;;;;;;;;;;;22.63;54.24;100578.50;5075827;28;839;-42
2021/08/25 07:40:56;;;;;;;;;;;;;;;20.39;59.26;100570.31;5077059;28;1906;-42
2021/08/25 07:43:22;;;;;;;;;;;;;;;20.14;61.08;100575.25;5094938;28;994;-32
2021/08/25 07:45:47;;;;;;;;;;;;;;;20.02;61.40;100573.69;5097275;28;738;-43
2021/08/25 07:48:13;;;;;;;;;;;;;;;19.97;61.48;100576.75;5096870;28;1199;-36
2021/08/25 07:50:38;;;;;;;;;;;;;;;19.99;61.58;100574.78;5079624;28;1699;-44
2021/08/25 07:53:03;;;;;;;;;;;;;;;20.08;61.34;100565.13;5075837;28;859;-37
2021/08/25 07:55:29;;;;;;;;;;;;;;;22.68;54.89;100565.47;5076420;28;803;-39
2021/08/25 07:57:54;;;;;;;;;;;;;;;21.33;56.80;100576.84;5091026;28;938;-40
2021/08/25 08:00:19;;;;;;;;;;;;;;;20.28;60.28;100567.78;5097036;28;1911;-39
2021/08/25 08:02:44;;;;;;;;;;;;;;;20.09;60.75;100561.47;5096939;28;811;-39
2021/08/25 08:05:10;;;;;;;;;;;;;;;20.04;61.21;100558.38;5086348;28;1177;-41
2021/08/25 08:07:35;;;;;;;;;;;;;;;20.07;61.89;100552.75;5082634;28;1238;-38
2021/08/25 08:10:02;;;;;;;;;;;;;;;20.12;62.48;100555.84;5087688;28;1479;-42
2021/08/25 08:12:27;;;;;;;;;;;;;;;20.87;63.92;100557.00;5093348;28;1455;-36
2021/08/25 08:14:54;;;;;;;;;;;;;;;23.33;54.60;100565.13;5095318;28;730;-37
2021/08/25 08:17:22;;;;;;;;;;;;;;;24.24;51.90;100566.38;5081537;28;1451;-42
2021/08/25 08:19:47;;;;;;;;;;;;;;;24.72;50.27;100562.94;5079268;28;1971;-36
2021/08/25 08:22:13;;;;;;;;;;;;;;;25.03;49.29;100555.00;5089401;28;1368;-43
2021/08/25 08:24:38;;;;;;;;;;;;;;;25.28;48.45;100557.59;5091243;28;1439;-37
2021/08/25 08:27:05;;;;;;;;;;;;;;;25.56;48.14;100567.03;5080814;28;1240;-38
2021/08/25 08:29:30;;;;;;;;;;;;;;;25.76;47.70;100559.38;5084796;28;1380;-37
2021/08/25 08:31:55;;;;;;;;;;;;;;;26.09;46.47;100557.47;5087170;28;1352;-38
2021/08/25 08:34:21;;;;;;;;;;;;;;;26.19;45.96;100560.75;5078236;28;1455;-41
2021/08/25 08:36:46;;;;;;;;;;;;;;;26.52;44.91;100554.25;5086369;28;1534;-37
2021/08/25 08:39:11;;;;;;;;;;;;;;;26.63;44.49;100558.34;5090618;28;1333;-38
2021/08/25 08:41:38;;;;;;;;;;;;;;;26.68;43.90;100558.63;5085430;28;1968;-36
2021/08/25 08:44:04;;;;;;;;;;;;;;;26.75;43.02;100559.59;5086765;28;1241;-35
2021/08/25 08:46:29;;;;;;;;;;;;;;;26.86;42.73;100560.97;5086320;28;1364;-33
2021/08/25 08:48:55;;;;;;;;;;;;;;;26.97;42.22;100561.53;5085351;28;1523;-32
2021/08/25 08:51:22;;;;;;;;;;;;;;;27.07;41.97;100556.72;5088772;28;1210;-33
2021/08/25 08:53:47;;;;;;;;;;;;;;;27.16;40.18;100552.03;5080161;28;1396;-36
2021/08/25 08:56:13;;;;;;;;;;;;;;;27.27;40.46;100553.44;5076489;28;1063;-37
2021/08/25 08:58:38;;;;;;;;;;;;;;;27.35;41.05;100550.63;5079286;28;1273;-36
2021/08/25 09:01:06;;;;;;;;;;;;;;;26.93;38.07;100550.28;5088147;28;1965;-34
2021/08/25 09:03:33;;;;;;;;;;;;;;;27.23;40.07;100554.81;5084486;28;1317;-38
2021/08/25 09:05:59;;;;;;;;;;;;;;;27.50;40.42;100545.19;5076045;28;779;-40
2021/08/25 09:08:27;;;;;;;;;;;;;;;27.64;40.10;100550.75;5075714;28;856;-39
2021/08/25 09:11:07;;;;;;;;;;;;;;;27.64;40.06;100550.75;5076326;28;1416;-38
2021/08/25 09:13:37;;;;;;;;;;;;;;;27.65;39.62;100547.00;5095955;28;763;-43
2021/08/25 09:16:02;;;;;;;;;;;;;;;27.74;40.23;100545.06;5087480;28;1289;-39
2021/08/25 09:18:27;;;;;;;;;;;;;;;27.82;40.31;100550.34;5078920;28;1550;-42
2021/08/25 09:20:53;;;;;;;;;;;;;;;27.90;40.27;100551.22;5075376;28;1964;-38
2021/08/25 09:23:25;;;;;;;;;;;;;;;27.92;39.97;100549.16;5085468;28;1411;-40
2021/08/25 09:25:53;;;;;;;;;;;;;;;27.94;39.34;100553.38;5091144;28;1186;-40
2021/08/25 09:28:19;;;;;;;;;;;;;;;27.96;38.94;100545.88;5080524;28;1210;-39
2021/08/25 09:30:53;;;;;;;;;;;;;;;27.96;39.29;100542.34;5091319;28;1395;-42
2021/08/25 09:33:19;;;;;;;;;;;;;;;27.97;39.48;100528.66;5088491;28;1423;-42
2021/08/25 09:35:45;;;;;;;;;;;;;;;28.18;39.94;100535.03;5089403;28;1348;-42
2021/08/25 09:38:17;;;;;;;;;;;;;;;28.22;39.86;100532.78;5092640;28;1495;-42
2021/08/25 09:40:45;;;;;;;;;;;;;;;28.14;39.19;100525.66;5085390;28;1980;-42
2021/08/25 09:43:11;;;;;;;;;;;;;;;28.13;39.23;100523.97;5095762;28;1233;-40
2021/08/25 09:45:36;;;;;;;;;;;;;;;28.15;39.03;100530.03;5098929;28;866;-42
2021/08/25 09:48:01;;;;;;;;;;;;;;;28.06;39.55;100521.22;5084765;28;1316;-39
2021/08/25 09:50:26;;;;;;;;;;;;;;;28.03;39.90;100523.50;5095256;28;1475;-39
2021/08/25 09:52:52;;;;;;;;;;;;;;;28.05;39.91;100516.84;5087729;28;1388;-42
2021/08/25 09:55:37;;;;;;;;;;;;;;;28.13;40.18;100510.44;5092094;28;1352;-40
2021/08/25 09:58:03;;;;;;;;;;;;;;;28.26;40.24;100509.72;5081596;28;1689;-42
2021/08/25 10:00:29;;;;;;;;;;;;;;;28.30;39.88;100510.16;5078821;28;1977;-37
2021/08/25 10:02:55;;;;;;;;;;;;;;;28.22;39.96;100514.69;5078642;28;751;-40
2021/08/25 10:05:24;;;;;;;;;;;;;;;28.17;39.97;100519.84;5086754;28;1467;-39
2021/08/25 10:07:50;;;;;;;;;;;;;;;28.16;40.03;100515.47;5083751;28;1368;-39
2021/08/25 10:10:16;;;;;;;;;;;;;;;28.14;40.17;100511.28;5079653;28;1297;-39
2021/08/25 10:12:41;;;;;;;;;;;;;;;28.37;39.49;100516.50;5095515;28;956;-40
2021/08/25 10:15:27;;;;;;;;;;;;;;;28.51;39.47;100506.56;5097207;28;1463;-40
2021/08/25 10:17:52;;;;;;;;;;;;;;;28.55;39.07;100507.03;5068581;28;2041;-39
2021/08/25 10:20:23;;;;;;;;;;;;;;;28.44;38.82;100501.16;5088931;28;1870;-40
2021/08/25 10:22:49;;;;;;;;;;;;;;;28.42;38.74;100505.06;5078424;28;1505;-39
2021/08/25 10:25:14;;;;;;;;;;;;;;;28.37;38.95;100508.38;5077376;28;817;-39
2021/08/25 10:27:58;;;;;;;;;;;;;;;28.35;39.15;100500.47;5090639;28;1192;-39
2021/08/25 10:30:23;;;;;;;;;;;;;;;28.39;39.07;100503.63;5098853;28;858;-39
2021/08/25 10:32:51;;;;;;;;;;;;;;;28.46;39.41;100504.47;5090029;28;1325;-39
2021/08/25 10:35:20;;;;;;;;;;;;;;;28.54;39.77;100500.78;5094036;28;781;-39
2021/08/25 10:37:46;;;;;;;;;;;;;;;28.60;39.44;100505.41;5096048;28;1418;-38
2021/08/25 10:40:11;;;;;;;;;;;;;;;28.58;39.34;100495.81;5097763;28;1902;-42
2021/08/25 10:42:43;;;;;;;;;;;;;;;28.58;39.66;100498.50;5089601;28;1268;-39
2021/08/25 10:45:09;;;;;;;;;;;;;;;28.68;38.76;100498.13;5090444;28;1275;-42
2021/08/25 10:47:57;;;;;;;;;;;;;;;28.71;38.97;100504.00;5089733;28;1538;-42
2021/08/25 10:50:22;;;;;;;;;;;;;;;28.72;39.15;100497.56;5074374;28;1588;-42
2021/08/25 10:52:48;;;;;;;;;;;;;;;28.69;39.69;100497.13;5089256;28;1210;-40
2021/08/25 10:55:13;;;;;;;;;;;;;;;28.73;39.49;100488.41;5084073;28;1218;-39
2021/08/25 10:57:38;;;;;;;;;;;;;;;28.84;39.10;100495.09;5079420;28;859;-40
2021/08/25 11:00:07;;;;;;;;;;;;;;;23.90;47.68;100488.41;5076088;28;1909;-37
2021/08/25 11:02:39;;;;;;;;;;;;;;;20.99;49.44;100485.50;5077197;28;926;-39
2021/08/25 11:05:05;;;;;;;;;;;;;;;20.27;52.04;100486.81;5078125;28;821;-37
2021/08/25 11:07:30;;;;;;;;;;;;;;;21.11;53.94;100487.97;5077086;28;1534;-37
2021/08/25 11:09:55;;;;;;;;;;;;;;;21.34;54.71;100479.53;5077468;28;791;-37
2021/08/25 11:12:21;;;;;;;;;;;;;;;21.38;55.56;100488.94;5087440;28;1006;-37
2021/08/25 11:14:48;;;;;;;;;;;;;;;21.40;56.48;100482.44;5097718;28;751;-36
2021/08/25 11:17:17;;;;;;;;;;;;;;;21.36;57.30;100483.75;5097119;28;807;-42
2021/08/25 11:19:45;;;;;;;;;;;;;;;21.09;57.92;100480.09;5097323;28;866;-42
2021/08/25 11:22:14;;;;;;;;;;;;;;;20.92;58.64;100487.03;5097321;28;1977;-37
2021/08/25 11:24:41;;;;;;;;;;;;;;;21.00;58.77;100475.66;5097202;28;866;-42
2021/08/25 11:27:20;;;;;;;;;;;;;;;20.91;58.95;100475.50;5089076;28;1013;-40
2021/08/25 11:29:58;;;;;;;;;;;;;;;20.65;59.64;100481.50;5076789;28;771;-41
2021/08/25 11:32:23;;;;;;;;;;;;;;;20.70;59.30;100482.91;5076974;28;859;-35
2021/08/25 11:34:49;;;;;;;;;;;;;;;20.53;59.71;100480.00;5077278;28;870;-38
2021/08/25 11:37:14;;;;;;;;;;;;;;;20.46;59.90;100478.91;5081711;28;1210;-40
2021/08/25 11:39:39;;;;;;;;;;;;;;;20.37;60.93;100470.75;5095351;28;1498;-38
2021/08/25 11:42:05;;;;;;;;;;;;;;;20.39;60.76;100475.97;5088385;28;1897;-42
2021/08/25 11:44:42;;;;;;;;;;;;;;;20.37;60.85;100464.59;5076746;28;788;-36
2021/08/25 11:47:11;;;;;;;;;;;;;;;20.38;60.55;100469.78;5076796;28;720;-39
2021/08/25 11:49:36;;;;;;;;;;;;;;;20.16;61.16;100462.94;5084796;28;1546;-41
2021/08/25 11:52:02;;;;;;;;;;;;;;;20.19;61.13;100458.16;5096249;28;783;-35
2021/08/25 11:54:27;;;;;;;;;;;;;;;20.21;60.97;100452.66;5096489;28;779;-39
2021/08/25 11:56:53;;;;;;;;;;;;;;;20.19;61.46;100444.81;5090743;28;941;-37
2021/08/25 11:59:18;;;;;;;;;;;;;;;20.21;61.58;100443.81;5076307;28;859;-39
2021/08/25 12:01:43;;;;;;;;;;;;;;;20.27;61.48;100445.91;5076571;28;1913;-41
2021/08/25 12:04:08;;;;;;;;;;;;;;;20.49;63.00;100434.03;5076610;28;771;-47
2021/08/25 12:06:44;;;;;;;;;;;;;;;23.19;54.11;100435.09;5075116;28;770;-41
2021/08/25 12:09:09;;;;;;;;;;;;;;;21.32;57.87;100428.84;5076377;28;842;-42
2021/08/25 12:11:52;;;;;;;;;;;;;;;20.19;60.02;100425.25;5078548;28;805;-41
2021/08/25 12:14:17;;;;;;;;;;;;;;;20.07;61.33;100416.56;5095992;28;823;-41
2021/08/25 12:16:42;;;;;;;;;;;;;;;20.15;61.12;100410.53;5096623;28;771;-36
2021/08/25 12:19:07;;;;;;;;;;;;;;;19.97;61.52;100416.53;5094932;28;867;-39
2021/08/25 12:21:33;;;;;;;;;;;;;;;19.92;61.99;100416.97;5096585;28;1906;-40
2021/08/25 12:24:01;;;;;;;;;;;;;;;19.83;62.33;100410.66;5096476;28;752;-39
2021/08/25 12:26:26;;;;;;;;;;;;;;;19.88;62.40;100404.91;5093790;28;989;-42
2021/08/25 12:28:51;;;;;;;;;;;;;;;21.38;61.50;100408.66;5076463;28;763;-39
2021/08/25 12:31:17;;;;;;;;;;;;;;;23.51;52.81;100419.22;5076328;28;752;-42
2021/08/25 12:33:43;;;;;;;;;;;;;;;20.52;59.54;100416.88;5075630;28;803;-42
2021/08/25 12:36:24;;;;;;;;;;;;;;;20.03;61.25;100412.47;5076250;28;834;-42
2021/08/25 12:38:50;;;;;;;;;;;;;;;19.87;61.98;100413.91;5075837;28;811;-40
2021/08/25 12:41:16;;;;;;;;;;;;;;;19.86;62.05;100412.22;5076924;28;1886;-42
2021/08/25 12:43:41;;;;;;;;;;;;;;;19.94;62.07;100407.00;5096784;28;743;-45
2021/08/25 12:46:06;;;;;;;;;;;;;;;19.91;62.54;100406.44;5096164;28;796;-41
2021/08/25 12:48:32;;;;;;;;;;;;;;;22.46;56.31;100416.66;5096223;28;1186;-41